<?xml version="1.0" encoding="UTF-8" standalone="no" ?>
<gpx xmlns="http://www.topografix.com/GPX/1/1" xmlns:xsi="http://www.w3.org/2001/XMLSchema-instance" xsi:schemaLocation="http://www.topografix.com/GPX/1/1 http://www.topografix.com/GPX/1/1/gpx.xsd" version="1.1" creator="VisuGPX - https://www.visugpx.com">
  <metadata>
    <name>Les cascades du Hérisson</name>
    <desc><![CDATA[Randonnée dans le Jura, ces cascades successives ne sont pas d\'égal intérêt. La première est la plus spectaculaire.]]></desc>
  </metadata>
  <trk>
    <name><![CDATA[5 sept. 2014 10:01:13]]></name>
    <cmt><![CDATA[5 sept. 2014 10:01:13]]></cmt>
    <trkseg>
      <trkpt lat="46.6148" lon="5.84645">
        <ele>523</ele>
        <time>2014-09-05T08:01:14Z</time>
      </trkpt>
      <trkpt lat="46.61482" lon="5.84644">
        <ele>521</ele>
        <time>2014-09-05T08:01:30Z</time>
      </trkpt>
      <trkpt lat="46.61484" lon="5.84645">
        <ele>520</ele>
        <time>2014-09-05T08:01:42Z</time>
      </trkpt>
      <trkpt lat="46.61484" lon="5.8465">
        <ele>520</ele>
        <time>2014-09-05T08:01:53Z</time>
      </trkpt>
      <trkpt lat="46.61482" lon="5.84658">
        <ele>520</ele>
        <time>2014-09-05T08:01:59Z</time>
      </trkpt>
      <trkpt lat="46.6148" lon="5.84665">
        <ele>520</ele>
        <time>2014-09-05T08:02:04Z</time>
      </trkpt>
      <trkpt lat="46.6148" lon="5.84672">
        <ele>519</ele>
        <time>2014-09-05T08:02:09Z</time>
      </trkpt>
      <trkpt lat="46.61479" lon="5.8468">
        <ele>519</ele>
        <time>2014-09-05T08:02:13Z</time>
      </trkpt>
      <trkpt lat="46.61478" lon="5.84687">
        <ele>516</ele>
        <time>2014-09-05T08:02:18Z</time>
      </trkpt>
      <trkpt lat="46.61479" lon="5.84694">
        <ele>517</ele>
        <time>2014-09-05T08:02:24Z</time>
      </trkpt>
      <trkpt lat="46.61472" lon="5.84707">
        <ele>520</ele>
        <time>2014-09-05T08:02:35Z</time>
      </trkpt>
      <trkpt lat="46.61469" lon="5.84724">
        <ele>520</ele>
        <time>2014-09-05T08:02:47Z</time>
      </trkpt>
      <trkpt lat="46.61464" lon="5.84731">
        <ele>520</ele>
        <time>2014-09-05T08:02:55Z</time>
      </trkpt>
      <trkpt lat="46.61457" lon="5.84739">
        <ele>518</ele>
        <time>2014-09-05T08:03:05Z</time>
      </trkpt>
      <trkpt lat="46.61453" lon="5.84739">
        <ele>518</ele>
        <time>2014-09-05T08:03:43Z</time>
      </trkpt>
      <trkpt lat="46.61452" lon="5.8475">
        <ele>519</ele>
        <time>2014-09-05T08:03:52Z</time>
      </trkpt>
      <trkpt lat="46.61448" lon="5.84762">
        <ele>525</ele>
        <time>2014-09-05T08:04:02Z</time>
      </trkpt>
      <trkpt lat="46.61451" lon="5.84776">
        <ele>524</ele>
        <time>2014-09-05T08:04:13Z</time>
      </trkpt>
      <trkpt lat="46.61444" lon="5.84785">
        <ele>521</ele>
        <time>2014-09-05T08:04:29Z</time>
      </trkpt>
      <trkpt lat="46.61442" lon="5.84795">
        <ele>524</ele>
        <time>2014-09-05T08:04:37Z</time>
      </trkpt>
      <trkpt lat="46.61431" lon="5.84815">
        <ele>522</ele>
        <time>2014-09-05T08:04:57Z</time>
      </trkpt>
      <trkpt lat="46.61429" lon="5.84822">
        <ele>522</ele>
        <time>2014-09-05T08:05:03Z</time>
      </trkpt>
      <trkpt lat="46.61419" lon="5.84838">
        <ele>525</ele>
        <time>2014-09-05T08:05:24Z</time>
      </trkpt>
      <trkpt lat="46.61416" lon="5.84852">
        <ele>525</ele>
        <time>2014-09-05T08:05:33Z</time>
      </trkpt>
      <trkpt lat="46.61411" lon="5.84862">
        <ele>529</ele>
        <time>2014-09-05T08:05:40Z</time>
      </trkpt>
      <trkpt lat="46.61403" lon="5.84876">
        <ele>528</ele>
        <time>2014-09-05T08:05:55Z</time>
      </trkpt>
      <trkpt lat="46.61385" lon="5.84916">
        <ele>537</ele>
        <time>2014-09-05T08:06:29Z</time>
      </trkpt>
      <trkpt lat="46.61378" lon="5.84926">
        <ele>536</ele>
        <time>2014-09-05T08:06:45Z</time>
      </trkpt>
      <trkpt lat="46.61365" lon="5.84946">
        <ele>539</ele>
        <time>2014-09-05T08:07:07Z</time>
      </trkpt>
      <trkpt lat="46.61364" lon="5.8496">
        <ele>537</ele>
        <time>2014-09-05T08:07:15Z</time>
      </trkpt>
      <trkpt lat="46.61365" lon="5.84966">
        <ele>537</ele>
        <time>2014-09-05T08:07:20Z</time>
      </trkpt>
      <trkpt lat="46.61362" lon="5.84981">
        <ele>535</ele>
        <time>2014-09-05T08:07:27Z</time>
      </trkpt>
      <trkpt lat="46.61365" lon="5.84996">
        <ele>533</ele>
        <time>2014-09-05T08:07:36Z</time>
      </trkpt>
      <trkpt lat="46.61366" lon="5.85009">
        <ele>534</ele>
        <time>2014-09-05T08:07:46Z</time>
      </trkpt>
      <trkpt lat="46.6136" lon="5.8502">
        <ele>535</ele>
        <time>2014-09-05T08:07:57Z</time>
      </trkpt>
      <trkpt lat="46.61355" lon="5.85033">
        <ele>533</ele>
        <time>2014-09-05T08:08:05Z</time>
      </trkpt>
      <trkpt lat="46.61351" lon="5.85044">
        <ele>534</ele>
        <time>2014-09-05T08:08:13Z</time>
      </trkpt>
      <trkpt lat="46.61343" lon="5.85053">
        <ele>538</ele>
        <time>2014-09-05T08:08:24Z</time>
      </trkpt>
      <trkpt lat="46.61342" lon="5.85064">
        <ele>538</ele>
        <time>2014-09-05T08:08:29Z</time>
      </trkpt>
      <trkpt lat="46.61342" lon="5.85077">
        <ele>541</ele>
        <time>2014-09-05T08:08:36Z</time>
      </trkpt>
      <trkpt lat="46.6134" lon="5.85092">
        <ele>542</ele>
        <time>2014-09-05T08:08:47Z</time>
      </trkpt>
      <trkpt lat="46.6134" lon="5.85106">
        <ele>540</ele>
        <time>2014-09-05T08:08:57Z</time>
      </trkpt>
      <trkpt lat="46.61341" lon="5.85119">
        <ele>539</ele>
        <time>2014-09-05T08:09:07Z</time>
      </trkpt>
      <trkpt lat="46.61338" lon="5.85127">
        <ele>538</ele>
        <time>2014-09-05T08:09:18Z</time>
      </trkpt>
      <trkpt lat="46.6134" lon="5.8514">
        <ele>533</ele>
        <time>2014-09-05T08:09:38Z</time>
      </trkpt>
      <trkpt lat="46.61347" lon="5.85151">
        <ele>535</ele>
        <time>2014-09-05T08:10:21Z</time>
      </trkpt>
      <trkpt lat="46.61351" lon="5.85163">
        <ele>535</ele>
        <time>2014-09-05T08:10:29Z</time>
      </trkpt>
      <trkpt lat="46.61349" lon="5.85179">
        <ele>537</ele>
        <time>2014-09-05T08:10:45Z</time>
      </trkpt>
      <trkpt lat="46.61353" lon="5.85206">
        <ele>545</ele>
        <time>2014-09-05T08:11:00Z</time>
      </trkpt>
      <trkpt lat="46.6135" lon="5.85217">
        <ele>550</ele>
        <time>2014-09-05T08:11:29Z</time>
      </trkpt>
      <trkpt lat="46.61356" lon="5.85226">
        <ele>549</ele>
        <time>2014-09-05T08:11:48Z</time>
      </trkpt>
      <trkpt lat="46.61361" lon="5.85238">
        <ele>549</ele>
        <time>2014-09-05T08:11:55Z</time>
      </trkpt>
      <trkpt lat="46.61371" lon="5.85242">
        <ele>549</ele>
        <time>2014-09-05T08:12:11Z</time>
      </trkpt>
      <trkpt lat="46.61372" lon="5.85249">
        <ele>547</ele>
        <time>2014-09-05T08:12:25Z</time>
      </trkpt>
      <trkpt lat="46.6138" lon="5.85262">
        <ele>539</ele>
        <time>2014-09-05T08:12:58Z</time>
      </trkpt>
      <trkpt lat="46.61382" lon="5.85275">
        <ele>541</ele>
        <time>2014-09-05T08:13:05Z</time>
      </trkpt>
      <trkpt lat="46.61392" lon="5.853">
        <ele>540</ele>
        <time>2014-09-05T08:13:30Z</time>
      </trkpt>
      <trkpt lat="46.61393" lon="5.85313">
        <ele>541</ele>
        <time>2014-09-05T08:13:39Z</time>
      </trkpt>
      <trkpt lat="46.61398" lon="5.85325">
        <ele>543</ele>
        <time>2014-09-05T08:13:48Z</time>
      </trkpt>
      <trkpt lat="46.61398" lon="5.85339">
        <ele>546</ele>
        <time>2014-09-05T08:13:59Z</time>
      </trkpt>
      <trkpt lat="46.6141" lon="5.85345">
        <ele>546</ele>
        <time>2014-09-05T08:14:28Z</time>
      </trkpt>
      <trkpt lat="46.61433" lon="5.85345">
        <ele>551</ele>
        <time>2014-09-05T08:14:47Z</time>
      </trkpt>
      <trkpt lat="46.61426" lon="5.85337">
        <ele>558</ele>
        <time>2014-09-05T08:14:59Z</time>
      </trkpt>
      <trkpt lat="46.61416" lon="5.85342">
        <ele>552</ele>
        <time>2014-09-05T08:15:16Z</time>
      </trkpt>
      <trkpt lat="46.61401" lon="5.85343">
        <ele>550</ele>
        <time>2014-09-05T08:15:30Z</time>
      </trkpt>
      <trkpt lat="46.61404" lon="5.85351">
        <ele>542</ele>
        <time>2014-09-05T08:16:28Z</time>
      </trkpt>
      <trkpt lat="46.61408" lon="5.85366">
        <ele>542</ele>
        <time>2014-09-05T08:16:41Z</time>
      </trkpt>
      <trkpt lat="46.61412" lon="5.85385">
        <ele>544</ele>
        <time>2014-09-05T08:17:01Z</time>
      </trkpt>
      <trkpt lat="46.61409" lon="5.85412">
        <ele>553</ele>
        <time>2014-09-05T08:17:38Z</time>
      </trkpt>
      <trkpt lat="46.6141" lon="5.85429">
        <ele>558</ele>
        <time>2014-09-05T08:17:45Z</time>
      </trkpt>
      <trkpt lat="46.61408" lon="5.8544">
        <ele>555</ele>
        <time>2014-09-05T08:18:15Z</time>
      </trkpt>
      <trkpt lat="46.61385" lon="5.85452">
        <ele>540</ele>
        <time>2014-09-05T08:19:15Z</time>
      </trkpt>
      <trkpt lat="46.6139" lon="5.85452">
        <ele>549</ele>
        <time>2014-09-05T08:20:07Z</time>
      </trkpt>
      <trkpt lat="46.61384" lon="5.85438">
        <ele>548</ele>
        <time>2014-09-05T08:20:18Z</time>
      </trkpt>
      <trkpt lat="46.61377" lon="5.85439">
        <ele>545</ele>
        <time>2014-09-05T08:21:46Z</time>
      </trkpt>
      <trkpt lat="46.61395" lon="5.85431">
        <ele>545</ele>
        <time>2014-09-05T08:21:53Z</time>
      </trkpt>
      <trkpt lat="46.61406" lon="5.85447">
        <ele>548</ele>
        <time>2014-09-05T08:22:29Z</time>
      </trkpt>
      <trkpt lat="46.61416" lon="5.8546">
        <ele>554</ele>
        <time>2014-09-05T08:22:56Z</time>
      </trkpt>
      <trkpt lat="46.61411" lon="5.85476">
        <ele>561</ele>
        <time>2014-09-05T08:23:08Z</time>
      </trkpt>
      <trkpt lat="46.61401" lon="5.8549">
        <ele>567</ele>
        <time>2014-09-05T08:23:10Z</time>
      </trkpt>
      <trkpt lat="46.61392" lon="5.85492">
        <ele>571</ele>
        <time>2014-09-05T08:23:18Z</time>
      </trkpt>
      <trkpt lat="46.61388" lon="5.85496">
        <ele>570</ele>
        <time>2014-09-05T08:23:46Z</time>
      </trkpt>
      <trkpt lat="46.61384" lon="5.85485">
        <ele>557</ele>
        <time>2014-09-05T08:25:39Z</time>
      </trkpt>
      <trkpt lat="46.6138" lon="5.85479">
        <ele>556</ele>
        <time>2014-09-05T08:26:45Z</time>
      </trkpt>
      <trkpt lat="46.61377" lon="5.85472">
        <ele>561</ele>
        <time>2014-09-05T08:27:03Z</time>
      </trkpt>
      <trkpt lat="46.61386" lon="5.85453">
        <ele>564</ele>
        <time>2014-09-05T08:27:12Z</time>
      </trkpt>
      <trkpt lat="46.61396" lon="5.85432">
        <ele>575</ele>
        <time>2014-09-05T08:27:50Z</time>
      </trkpt>
      <trkpt lat="46.61409" lon="5.85406">
        <ele>569</ele>
        <time>2014-09-05T08:28:05Z</time>
      </trkpt>
      <trkpt lat="46.61417" lon="5.85399">
        <ele>569</ele>
        <time>2014-09-05T08:28:11Z</time>
      </trkpt>
      <trkpt lat="46.61429" lon="5.85391">
        <ele>572</ele>
        <time>2014-09-05T08:28:37Z</time>
      </trkpt>
      <trkpt lat="46.61442" lon="5.85381">
        <ele>573</ele>
        <time>2014-09-05T08:28:57Z</time>
      </trkpt>
      <trkpt lat="46.61442" lon="5.8536">
        <ele>568</ele>
        <time>2014-09-05T08:29:10Z</time>
      </trkpt>
      <trkpt lat="46.6145" lon="5.85368">
        <ele>574</ele>
        <time>2014-09-05T08:29:33Z</time>
      </trkpt>
      <trkpt lat="46.61453" lon="5.85386">
        <ele>576</ele>
        <time>2014-09-05T08:29:44Z</time>
      </trkpt>
      <trkpt lat="46.61451" lon="5.85403">
        <ele>578</ele>
        <time>2014-09-05T08:29:53Z</time>
      </trkpt>
      <trkpt lat="46.6145" lon="5.8542">
        <ele>577</ele>
        <time>2014-09-05T08:30:02Z</time>
      </trkpt>
      <trkpt lat="46.61449" lon="5.85429">
        <ele>574</ele>
        <time>2014-09-05T08:30:18Z</time>
      </trkpt>
      <trkpt lat="46.61453" lon="5.85437">
        <ele>578</ele>
        <time>2014-09-05T08:30:42Z</time>
      </trkpt>
      <trkpt lat="46.61453" lon="5.85457">
        <ele>590</ele>
        <time>2014-09-05T08:31:24Z</time>
      </trkpt>
      <trkpt lat="46.61444" lon="5.85496">
        <ele>595</ele>
        <time>2014-09-05T08:31:48Z</time>
      </trkpt>
      <trkpt lat="46.61441" lon="5.8551">
        <ele>594</ele>
        <time>2014-09-05T08:31:52Z</time>
      </trkpt>
      <trkpt lat="46.61429" lon="5.85523">
        <ele>595</ele>
        <time>2014-09-05T08:32:15Z</time>
      </trkpt>
      <trkpt lat="46.61421" lon="5.85531">
        <ele>595</ele>
        <time>2014-09-05T08:32:24Z</time>
      </trkpt>
      <trkpt lat="46.61413" lon="5.85534">
        <ele>586</ele>
        <time>2014-09-05T08:32:41Z</time>
      </trkpt>
      <trkpt lat="46.614" lon="5.85528">
        <ele>595</ele>
        <time>2014-09-05T08:33:27Z</time>
      </trkpt>
      <trkpt lat="46.61401" lon="5.85543">
        <ele>595</ele>
        <time>2014-09-05T08:33:56Z</time>
      </trkpt>
      <trkpt lat="46.61403" lon="5.85557">
        <ele>594</ele>
        <time>2014-09-05T08:34:04Z</time>
      </trkpt>
      <trkpt lat="46.61407" lon="5.85569">
        <ele>597</ele>
        <time>2014-09-05T08:34:13Z</time>
      </trkpt>
      <trkpt lat="46.61403" lon="5.85601">
        <ele>607</ele>
        <time>2014-09-05T08:34:42Z</time>
      </trkpt>
      <trkpt lat="46.61393" lon="5.85624">
        <ele>611</ele>
        <time>2014-09-05T08:35:07Z</time>
      </trkpt>
      <trkpt lat="46.61396" lon="5.85637">
        <ele>612</ele>
        <time>2014-09-05T08:35:20Z</time>
      </trkpt>
      <trkpt lat="46.61398" lon="5.8565">
        <ele>612</ele>
        <time>2014-09-05T08:35:31Z</time>
      </trkpt>
      <trkpt lat="46.61395" lon="5.8566">
        <ele>618</ele>
        <time>2014-09-05T08:36:22Z</time>
      </trkpt>
      <trkpt lat="46.61395" lon="5.85678">
        <ele>624</ele>
        <time>2014-09-05T08:36:44Z</time>
      </trkpt>
      <trkpt lat="46.61397" lon="5.85691">
        <ele>620</ele>
        <time>2014-09-05T08:36:56Z</time>
      </trkpt>
      <trkpt lat="46.61392" lon="5.85698">
        <ele>623</ele>
        <time>2014-09-05T08:37:24Z</time>
      </trkpt>
      <trkpt lat="46.61385" lon="5.85707">
        <ele>624</ele>
        <time>2014-09-05T08:37:40Z</time>
      </trkpt>
      <trkpt lat="46.61383" lon="5.85727">
        <ele>627</ele>
        <time>2014-09-05T08:38:15Z</time>
      </trkpt>
      <trkpt lat="46.61382" lon="5.85746">
        <ele>636</ele>
        <time>2014-09-05T08:38:48Z</time>
      </trkpt>
      <trkpt lat="46.61383" lon="5.85763">
        <ele>636</ele>
        <time>2014-09-05T08:38:58Z</time>
      </trkpt>
      <trkpt lat="46.61385" lon="5.85783">
        <ele>634</ele>
        <time>2014-09-05T08:39:07Z</time>
      </trkpt>
      <trkpt lat="46.61382" lon="5.85792">
        <ele>634</ele>
        <time>2014-09-05T08:39:29Z</time>
      </trkpt>
      <trkpt lat="46.61381" lon="5.85799">
        <ele>633</ele>
        <time>2014-09-05T08:39:58Z</time>
      </trkpt>
      <trkpt lat="46.61382" lon="5.85814">
        <ele>634</ele>
        <time>2014-09-05T08:40:03Z</time>
      </trkpt>
      <trkpt lat="46.61384" lon="5.8583">
        <ele>649</ele>
        <time>2014-09-05T08:40:56Z</time>
      </trkpt>
      <trkpt lat="46.61389" lon="5.85878">
        <ele>669</ele>
        <time>2014-09-05T08:41:42Z</time>
      </trkpt>
      <trkpt lat="46.61393" lon="5.85889">
        <ele>674</ele>
        <time>2014-09-05T08:42:09Z</time>
      </trkpt>
      <trkpt lat="46.61401" lon="5.85895">
        <ele>673</ele>
        <time>2014-09-05T08:42:41Z</time>
      </trkpt>
      <trkpt lat="46.61404" lon="5.85903">
        <ele>654</ele>
        <time>2014-09-05T08:44:37Z</time>
      </trkpt>
      <trkpt lat="46.61407" lon="5.85918">
        <ele>653</ele>
        <time>2014-09-05T08:44:49Z</time>
      </trkpt>
      <trkpt lat="46.61422" lon="5.85914">
        <ele>636</ele>
        <time>2014-09-05T08:45:49Z</time>
      </trkpt>
      <trkpt lat="46.61437" lon="5.85911">
        <ele>638</ele>
        <time>2014-09-05T08:45:50Z</time>
      </trkpt>
      <trkpt lat="46.61431" lon="5.85915">
        <ele>650</ele>
        <time>2014-09-05T08:46:08Z</time>
      </trkpt>
      <trkpt lat="46.61413" lon="5.85914">
        <ele>643</ele>
        <time>2014-09-05T08:46:31Z</time>
      </trkpt>
      <trkpt lat="46.61403" lon="5.85903">
        <ele>636</ele>
        <time>2014-09-05T08:47:23Z</time>
      </trkpt>
      <trkpt lat="46.61392" lon="5.859">
        <ele>626</ele>
        <time>2014-09-05T08:47:44Z</time>
      </trkpt>
      <trkpt lat="46.61383" lon="5.859">
        <ele>636</ele>
        <time>2014-09-05T08:48:45Z</time>
      </trkpt>
      <trkpt lat="46.6138" lon="5.85892">
        <ele>638</ele>
        <time>2014-09-05T08:49:00Z</time>
      </trkpt>
      <trkpt lat="46.61373" lon="5.85872">
        <ele>639</ele>
        <time>2014-09-05T08:49:21Z</time>
      </trkpt>
      <trkpt lat="46.61372" lon="5.85865">
        <ele>639</ele>
        <time>2014-09-05T08:50:22Z</time>
      </trkpt>
      <trkpt lat="46.6137" lon="5.85858">
        <ele>641</ele>
        <time>2014-09-05T08:51:00Z</time>
      </trkpt>
      <trkpt lat="46.61372" lon="5.85841">
        <ele>645</ele>
        <time>2014-09-05T08:51:21Z</time>
      </trkpt>
      <trkpt lat="46.61369" lon="5.85833">
        <ele>652</ele>
        <time>2014-09-05T08:52:27Z</time>
      </trkpt>
      <trkpt lat="46.61375" lon="5.8581">
        <ele>646</ele>
        <time>2014-09-05T08:52:53Z</time>
      </trkpt>
      <trkpt lat="46.61372" lon="5.85798">
        <ele>639</ele>
        <time>2014-09-05T08:53:12Z</time>
      </trkpt>
      <trkpt lat="46.61373" lon="5.85791">
        <ele>631</ele>
        <time>2014-09-05T08:53:30Z</time>
      </trkpt>
      <trkpt lat="46.61371" lon="5.85778">
        <ele>628</ele>
        <time>2014-09-05T08:53:41Z</time>
      </trkpt>
      <trkpt lat="46.61366" lon="5.85774">
        <ele>624</ele>
        <time>2014-09-05T08:53:56Z</time>
      </trkpt>
      <trkpt lat="46.61371" lon="5.85756">
        <ele>620</ele>
        <time>2014-09-05T08:54:17Z</time>
      </trkpt>
      <trkpt lat="46.61375" lon="5.85724">
        <ele>628</ele>
        <time>2014-09-05T08:55:10Z</time>
      </trkpt>
      <trkpt lat="46.61377" lon="5.85708">
        <ele>621</ele>
        <time>2014-09-05T08:55:57Z</time>
      </trkpt>
      <trkpt lat="46.61381" lon="5.85689">
        <ele>610</ele>
        <time>2014-09-05T08:56:32Z</time>
      </trkpt>
      <trkpt lat="46.61374" lon="5.8568">
        <ele>593</ele>
        <time>2014-09-05T08:56:43Z</time>
      </trkpt>
      <trkpt lat="46.61369" lon="5.8567">
        <ele>583</ele>
        <time>2014-09-05T08:57:01Z</time>
      </trkpt>
      <trkpt lat="46.61373" lon="5.8565">
        <ele>584</ele>
        <time>2014-09-05T08:57:49Z</time>
      </trkpt>
      <trkpt lat="46.61389" lon="5.85619">
        <ele>601</ele>
        <time>2014-09-05T08:58:35Z</time>
      </trkpt>
      <trkpt lat="46.61389" lon="5.85629">
        <ele>596</ele>
        <time>2014-09-05T08:59:03Z</time>
      </trkpt>
      <trkpt lat="46.61395" lon="5.85643">
        <ele>592</ele>
        <time>2014-09-05T08:59:48Z</time>
      </trkpt>
      <trkpt lat="46.61404" lon="5.85655">
        <ele>585</ele>
        <time>2014-09-05T09:00:12Z</time>
      </trkpt>
      <trkpt lat="46.61414" lon="5.85656">
        <ele>589</ele>
        <time>2014-09-05T09:00:24Z</time>
      </trkpt>
      <trkpt lat="46.61442" lon="5.85663">
        <ele>600</ele>
        <time>2014-09-05T09:00:44Z</time>
      </trkpt>
      <trkpt lat="46.61437" lon="5.85664">
        <ele>588</ele>
        <time>2014-09-05T09:02:30Z</time>
      </trkpt>
      <trkpt lat="46.61427" lon="5.85662">
        <ele>587</ele>
        <time>2014-09-05T09:02:35Z</time>
      </trkpt>
      <trkpt lat="46.61406" lon="5.85655">
        <ele>573</ele>
        <time>2014-09-05T09:03:06Z</time>
      </trkpt>
      <trkpt lat="46.61401" lon="5.85655">
        <ele>586</ele>
        <time>2014-09-05T09:04:36Z</time>
      </trkpt>
      <trkpt lat="46.61395" lon="5.85623">
        <ele>590</ele>
        <time>2014-09-05T09:04:54Z</time>
      </trkpt>
      <trkpt lat="46.61385" lon="5.85604">
        <ele>585</ele>
        <time>2014-09-05T09:05:16Z</time>
      </trkpt>
      <trkpt lat="46.61391" lon="5.85599">
        <ele>584</ele>
        <time>2014-09-05T09:06:38Z</time>
      </trkpt>
      <trkpt lat="46.61394" lon="5.85585">
        <ele>584</ele>
        <time>2014-09-05T09:06:52Z</time>
      </trkpt>
      <trkpt lat="46.61406" lon="5.85573">
        <ele>590</ele>
        <time>2014-09-05T09:07:15Z</time>
      </trkpt>
      <trkpt lat="46.61405" lon="5.85558">
        <ele>595</ele>
        <time>2014-09-05T09:07:28Z</time>
      </trkpt>
      <trkpt lat="46.61415" lon="5.85541">
        <ele>592</ele>
        <time>2014-09-05T09:07:50Z</time>
      </trkpt>
      <trkpt lat="46.61418" lon="5.85533">
        <ele>591</ele>
        <time>2014-09-05T09:08:33Z</time>
      </trkpt>
      <trkpt lat="46.61429" lon="5.85534">
        <ele>591</ele>
        <time>2014-09-05T09:08:38Z</time>
      </trkpt>
      <trkpt lat="46.61433" lon="5.85538">
        <ele>583</ele>
        <time>2014-09-05T09:08:53Z</time>
      </trkpt>
      <trkpt lat="46.61442" lon="5.85533">
        <ele>582</ele>
        <time>2014-09-05T09:09:09Z</time>
      </trkpt>
      <trkpt lat="46.6145" lon="5.8551">
        <ele>584</ele>
        <time>2014-09-05T09:09:42Z</time>
      </trkpt>
      <trkpt lat="46.6145" lon="5.85503">
        <ele>585</ele>
        <time>2014-09-05T09:09:54Z</time>
      </trkpt>
      <trkpt lat="46.61449" lon="5.85488">
        <ele>585</ele>
        <time>2014-09-05T09:10:09Z</time>
      </trkpt>
      <trkpt lat="46.61454" lon="5.85459">
        <ele>575</ele>
        <time>2014-09-05T09:10:41Z</time>
      </trkpt>
      <trkpt lat="46.61452" lon="5.85425">
        <ele>581</ele>
        <time>2014-09-05T09:11:16Z</time>
      </trkpt>
      <trkpt lat="46.61457" lon="5.85396">
        <ele>580</ele>
        <time>2014-09-05T09:11:46Z</time>
      </trkpt>
      <trkpt lat="46.61465" lon="5.85386">
        <ele>579</ele>
        <time>2014-09-05T09:11:59Z</time>
      </trkpt>
      <trkpt lat="46.6146" lon="5.85374">
        <ele>578</ele>
        <time>2014-09-05T09:12:05Z</time>
      </trkpt>
      <trkpt lat="46.61437" lon="5.85363">
        <ele>567</ele>
        <time>2014-09-05T09:15:08Z</time>
      </trkpt>
      <trkpt lat="46.61411" lon="5.85254">
        <ele>526</ele>
        <time>2014-09-05T09:40:21Z</time>
      </trkpt>
      <trkpt lat="46.61339" lon="5.85058">
        <ele>526</ele>
        <time>2014-09-05T09:45:43Z</time>
      </trkpt>
      <trkpt lat="46.61352" lon="5.85012">
        <ele>521.2</ele>
        <time>2014-09-05T09:51:41Z</time>
      </trkpt>
    </trkseg>
  </trk>
</gpx>